createdAt,value
2018-07-22T00:01:42.840Z,24.20
2018-07-22T00:04:13.120Z,24.14
2018-07-22T00:06:43.139Z,24.03
2018-07-22T00:09:14.262Z,23.89
2018-07-22T00:11:44.519Z,23.75
2018-07-22T00:14:14.773Z,23.73
2018-07-22T00:16:45.071Z,23.71
2018-07-22T00:19:15.117Z,23.64
2018-07-22T00:21:45.317Z,23.62
2018-07-22T00:24:15.501Z,23.57
2018-07-22T00:26:45.624Z,23.52
2018-07-22T00:29:15.987Z,23.52
2018-07-22T00:31:46.153Z,23.46
2018-07-22T00:34:16.284Z,23.47
2018-07-22T00:36:46.522Z,23.52
2018-07-22T00:39:16.760Z,23.60
2018-07-22T00:41:46.950Z,23.64
2018-07-22T00:44:17.069Z,23.70
2018-07-22T00:46:47.434Z,23.79
2018-07-22T00:49:17.555Z,23.61
2018-07-22T00:51:47.660Z,23.12
2018-07-22T00:54:17.999Z,22.75
2018-07-22T00:56:49.060Z,22.41
2018-07-22T00:59:20.221Z,22.21
2018-07-22T01:01:51.264Z,22.32
2018-07-22T01:04:22.507Z,22.41
2018-07-22T01:06:53.570Z,22.63
2018-07-22T01:09:24.424Z,22.82
2018-07-22T01:14:08.010Z,22.98
2018-07-22T01:16:38.056Z,23.12
2018-07-22T01:19:08.332Z,23.18
2018-07-22T01:21:38.168Z,23.13
2018-07-22T01:24:08.278Z,23.07
2018-07-22T01:26:38.635Z,23.11
2018-07-22T01:29:09.025Z,22.82
2018-07-22T01:31:39.201Z,22.64
2018-07-22T01:34:09.394Z,22.35
2018-07-22T01:36:39.621Z,21.83
2018-07-22T01:39:11.064Z,21.73
2018-07-22T01:41:41.300Z,21.71
2018-07-22T01:44:11.381Z,21.96
2018-07-22T01:46:41.275Z,22.20
2018-07-22T01:49:11.150Z,22.44
2018-07-22T01:51:42.004Z,22.38
2018-07-22T01:54:13.139Z,22.33
2018-07-22T01:56:43.921Z,22.25
2018-07-22T01:59:15.217Z,22.13
2018-07-22T02:01:46.021Z,22.11
2018-07-22T02:04:17.016Z,22.08
2018-07-22T02:06:47.623Z,22.07
2018-07-22T02:09:17.919Z,22.12
2018-07-22T02:11:48.058Z,22.25
2018-07-22T02:14:18.285Z,22.39
2018-07-22T02:16:48.481Z,22.51
2018-07-22T02:19:18.647Z,22.59
2018-07-22T02:21:48.881Z,22.67
2018-07-22T02:24:19.106Z,22.79
2018-07-22T02:26:49.435Z,22.86
2018-07-22T02:29:19.476Z,22.86
2018-07-22T02:31:49.564Z,22.86
2018-07-22T02:34:19.879Z,22.94
2018-07-22T02:36:50.071Z,23.05
2018-07-22T02:39:20.283Z,23.13
2018-07-22T02:41:50.399Z,23.15
2018-07-22T02:44:20.683Z,23.04
2018-07-22T02:46:50.870Z,22.96
2018-07-22T02:49:21.127Z,22.76
2018-07-22T02:51:51.286Z,22.50
2018-07-22T02:54:21.519Z,22.50
2018-07-22T02:56:51.638Z,22.57
2018-07-22T02:59:21.941Z,22.71
2018-07-22T03:01:52.689Z,22.82
2018-07-22T03:04:22.804Z,22.84
2018-07-22T03:06:53.324Z,22.87
2018-07-22T03:09:23.494Z,22.94
2018-07-22T03:11:53.760Z,23.02
2018-07-22T03:14:23.985Z,22.78
2018-07-22T03:16:54.026Z,22.76
2018-07-22T03:19:24.318Z,22.76
2018-07-22T03:21:54.345Z,22.87
2018-07-22T03:24:24.478Z,22.93
2018-07-22T03:26:55.138Z,22.90
2018-07-22T03:29:25.172Z,22.78
2018-07-22T03:31:55.304Z,22.72
2018-07-22T03:34:25.546Z,22.61
2018-07-22T03:36:55.706Z,22.59
2018-07-22T03:39:25.790Z,22.53
2018-07-22T03:41:56.045Z,22.21
2018-07-22T03:44:26.281Z,22.00
2018-07-22T03:46:56.525Z,22.06
2018-07-22T03:49:26.798Z,22.12
2018-07-22T03:51:56.965Z,22.08
2018-07-22T03:54:27.054Z,22.10
2018-07-22T03:56:57.413Z,21.90
2018-07-22T03:59:27.575Z,21.71
2018-07-22T04:01:57.696Z,21.44
2018-07-22T04:04:27.842Z,21.53
2018-07-22T04:06:57.976Z,21.67
2018-07-22T04:09:28.312Z,21.84
2018-07-22T04:11:58.451Z,22.01
2018-07-22T04:14:28.721Z,22.05
2018-07-22T04:16:58.999Z,22.05
2018-07-22T04:19:29.146Z,22.11
2018-07-22T04:21:59.279Z,22.22
2018-07-22T04:24:29.314Z,22.28
2018-07-22T04:26:59.654Z,22.22
2018-07-22T04:29:29.767Z,22.23
2018-07-22T04:32:00.110Z,22.34
2018-07-22T04:34:30.215Z,22.42
2018-07-22T04:37:00.335Z,22.08
2018-07-22T04:39:30.652Z,21.64
2018-07-22T04:42:00.614Z,21.34
2018-07-22T04:44:30.898Z,21.42
2018-07-22T04:47:01.140Z,21.31
2018-07-22T04:49:31.459Z,21.46
2018-07-22T04:52:02.579Z,21.71
2018-07-22T04:54:33.290Z,21.96
2018-07-22T04:57:03.514Z,22.15
2018-07-22T04:59:34.035Z,22.24
2018-07-22T05:02:04.355Z,22.39
2018-07-22T05:04:34.415Z,22.45
2018-07-22T05:07:04.626Z,22.44
2018-07-22T05:09:34.871Z,22.51
2018-07-22T05:12:05.176Z,22.44
2018-07-22T05:14:35.353Z,22.55
2018-07-22T05:17:05.615Z,22.51
2018-07-22T05:19:35.611Z,22.40
2018-07-22T05:22:05.913Z,22.35
2018-07-22T05:24:36.424Z,22.40
2018-07-22T05:27:06.754Z,22.50
2018-07-22T05:29:36.929Z,22.70
2018-07-22T05:32:07.123Z,22.71
2018-07-22T05:34:37.341Z,22.58
2018-07-22T05:37:07.974Z,22.48
2018-07-22T05:39:38.306Z,22.39
2018-07-22T05:42:08.468Z,22.36
2018-07-22T05:44:38.779Z,22.25
2018-07-22T05:47:08.982Z,22.22
2018-07-22T05:49:39.159Z,22.27
2018-07-22T05:52:09.253Z,22.08
2018-07-22T05:54:39.399Z,21.93
2018-07-22T05:57:09.479Z,21.60
2018-07-22T05:59:39.714Z,21.34
2018-07-22T06:02:09.680Z,21.49
2018-07-22T06:04:40.053Z,21.25
2018-07-22T06:07:10.135Z,21.45
2018-07-22T06:09:40.515Z,21.61
2018-07-22T06:12:10.682Z,21.70
2018-07-22T06:14:40.873Z,21.88
2018-07-22T06:17:11.286Z,21.94
2018-07-22T06:19:41.681Z,21.91
2018-07-22T06:22:11.584Z,22.16
2018-07-22T06:24:41.670Z,22.04
2018-07-22T06:27:12.548Z,21.98
2018-07-22T06:29:43.511Z,22.14
2018-07-22T06:34:08.299Z,22.11
2018-07-22T06:36:38.494Z,22.51
2018-07-22T06:39:11.974Z,22.56
2018-07-22T06:41:43.159Z,22.61
2018-07-22T06:44:13.286Z,22.53
2018-07-22T06:46:43.469Z,22.17
2018-07-22T06:49:13.562Z,22.02
2018-07-22T06:51:43.662Z,22.28
2018-07-22T06:54:13.976Z,22.52
2018-07-22T06:56:44.166Z,22.80
2018-07-22T06:59:14.320Z,22.79
2018-07-22T07:01:44.455Z,22.46
2018-07-22T07:04:15.218Z,22.36
2018-07-22T07:06:45.881Z,22.41
2018-07-22T07:09:16.063Z,22.15
2018-07-22T07:11:46.313Z,21.79
2018-07-22T07:14:16.670Z,21.90
2018-07-22T07:16:46.665Z,22.30
2018-07-22T07:19:16.900Z,22.54
2018-07-22T07:21:47.287Z,22.80
2018-07-22T07:24:17.509Z,22.56
2018-07-22T07:26:47.695Z,22.67
2018-07-22T07:29:17.860Z,22.71
2018-07-22T07:31:47.849Z,22.34
2018-07-22T07:34:17.975Z,22.45
2018-07-22T07:36:47.852Z,22.72
2018-07-22T07:39:18.368Z,22.93
2018-07-22T07:41:48.661Z,22.81
2018-07-22T07:44:18.788Z,22.97
2018-07-22T07:46:48.908Z,23.09
2018-07-22T07:49:19.040Z,23.22
2018-07-22T07:51:49.404Z,23.41
2018-07-22T07:54:20.356Z,23.36
2018-07-22T07:56:50.562Z,23.51
2018-07-22T07:59:20.920Z,23.21
2018-07-22T08:01:51.097Z,23.15
2018-07-22T08:04:21.174Z,23.54
2018-07-22T08:06:51.558Z,23.77
2018-07-22T08:09:21.844Z,24.01
2018-07-22T08:11:52.005Z,23.91
2018-07-22T08:14:22.481Z,23.53
2018-07-22T08:16:52.524Z,23.25
2018-07-22T08:19:22.589Z,23.57
2018-07-22T08:21:52.812Z,24.07
2018-07-22T08:24:22.897Z,24.23
2018-07-22T08:26:53.054Z,24.22
2018-07-22T08:29:33.202Z,24.12
2018-07-22T08:32:05.622Z,24.16
2018-07-22T08:34:35.864Z,24.14
2018-07-22T08:37:06.015Z,24.18
2018-07-22T08:39:38.351Z,24.27
2018-07-22T08:42:09.022Z,24.32
2018-07-22T08:44:39.294Z,24.39
2018-07-22T08:47:09.316Z,24.53
2018-07-22T08:49:39.551Z,24.61
2018-07-22T08:52:09.569Z,24.69
2018-07-22T08:54:39.807Z,24.80
2018-07-22T08:57:10.330Z,24.99
2018-07-22T08:59:40.694Z,25.10
2018-07-22T09:02:10.905Z,25.29
2018-07-22T09:04:41.549Z,25.43
2018-07-22T09:07:11.737Z,25.51
2018-07-22T09:09:42.028Z,25.52
2018-07-22T09:12:12.269Z,25.56
2018-07-22T09:14:42.663Z,25.44
2018-07-22T09:17:13.324Z,25.41
2018-07-22T09:19:44.590Z,25.32
2018-07-22T09:22:15.039Z,25.35
2018-07-22T09:24:45.585Z,25.40
2018-07-22T09:27:15.762Z,25.56
2018-07-22T09:29:46.377Z,25.71
2018-07-22T09:32:16.851Z,25.84
2018-07-22T09:34:47.015Z,25.93
2018-07-22T09:37:17.217Z,26.02
2018-07-22T09:39:47.383Z,26.14
2018-07-22T09:42:17.711Z,26.20
2018-07-22T09:44:47.791Z,26.27
2018-07-22T09:47:17.737Z,26.39
2018-07-22T09:49:48.310Z,26.46
2018-07-22T09:52:18.361Z,26.49
2018-07-22T09:54:48.431Z,26.52
2018-07-22T09:57:18.707Z,26.58
2018-07-22T09:59:48.949Z,26.56
2018-07-22T10:02:20.224Z,26.52
2018-07-22T10:04:51.332Z,26.57
2018-07-22T10:07:22.275Z,26.57
2018-07-22T10:09:53.704Z,26.60
2018-07-22T10:12:24.693Z,26.67
2018-07-22T10:24:08.288Z,26.71
2018-07-22T10:26:38.539Z,26.79
2018-07-22T10:29:08.682Z,26.89
2018-07-22T10:31:38.905Z,26.92
2018-07-22T10:34:09.031Z,26.89
2018-07-22T10:36:39.126Z,26.93
2018-07-22T10:39:11.730Z,27.05
2018-07-22T10:41:41.781Z,27.08
2018-07-22T10:44:12.091Z,27.13
2018-07-22T10:46:42.641Z,27.16
2018-07-22T10:49:12.756Z,27.14
2018-07-22T10:51:42.782Z,27.24
2018-07-22T10:54:14.401Z,27.33
2018-07-22T10:56:45.371Z,27.42
2018-07-22T10:59:16.363Z,27.53
2018-07-22T11:01:47.107Z,27.58
2018-07-22T11:04:18.306Z,27.59
2018-07-22T11:06:49.557Z,27.63
2018-07-22T11:09:20.312Z,27.74
2018-07-22T11:11:51.457Z,27.83
2018-07-22T11:14:21.828Z,27.83
2018-07-22T11:16:52.099Z,27.93
2018-07-22T11:19:22.283Z,28.01
2018-07-22T11:21:52.550Z,28.15
2018-07-22T11:24:22.936Z,28.29
2018-07-22T11:26:53.562Z,28.40
2018-07-22T11:29:23.862Z,28.32
2018-07-22T11:31:54.111Z,28.24
2018-07-22T11:34:24.294Z,28.31
2018-07-22T11:36:54.284Z,28.42
2018-07-22T11:39:24.563Z,28.51
2018-07-22T11:41:54.780Z,28.61
2018-07-22T11:44:24.964Z,28.70
2018-07-22T11:46:55.336Z,28.79
2018-07-22T11:49:25.628Z,28.88
2018-07-22T11:51:55.957Z,29.01
2018-07-22T11:54:26.241Z,29.16
2018-07-22T11:56:56.655Z,29.24
2018-07-22T11:59:26.928Z,29.17
2018-07-22T12:01:57.265Z,29.09
2018-07-22T12:04:28.468Z,28.99
2018-07-22T12:06:58.741Z,28.93
2018-07-22T12:09:28.803Z,28.91
2018-07-22T12:11:59.437Z,28.86
2018-07-22T12:14:29.737Z,28.74
2018-07-22T12:17:00.422Z,28.65
2018-07-22T12:19:30.630Z,28.72
2018-07-22T12:22:00.881Z,28.95
2018-07-22T12:24:31.183Z,29.17
2018-07-22T12:27:01.466Z,29.21
2018-07-22T12:29:31.839Z,29.39
2018-07-22T12:32:02.396Z,29.60
2018-07-22T12:34:32.581Z,29.53
2018-07-22T12:37:03.641Z,29.44
2018-07-22T12:39:34.439Z,29.35
2018-07-22T12:42:04.566Z,29.20
2018-07-22T12:44:34.907Z,29.23
2018-07-22T12:47:05.520Z,29.25
2018-07-22T12:49:35.721Z,29.20
2018-07-22T12:52:05.980Z,29.36
2018-07-22T12:54:36.404Z,29.59
2018-07-22T12:57:06.675Z,29.88
2018-07-22T12:59:36.761Z,30.05
2018-07-22T13:02:07.579Z,30.21
2018-07-22T13:04:37.899Z,30.33
2018-07-22T13:07:08.015Z,30.44
2018-07-22T13:09:38.244Z,30.56
2018-07-22T13:12:08.483Z,30.66
2018-07-22T13:14:38.724Z,30.68
2018-07-22T13:17:08.821Z,30.53
2018-07-22T13:19:39.048Z,30.34
2018-07-22T13:22:09.318Z,30.17
2018-07-22T13:24:39.569Z,30.04
2018-07-22T13:27:09.969Z,30.15
2018-07-22T13:29:39.922Z,30.34
2018-07-22T13:32:10.203Z,30.39
2018-07-22T13:34:40.500Z,30.29
2018-07-22T13:37:10.912Z,30.27
2018-07-22T13:39:41.255Z,30.36
2018-07-22T13:42:11.645Z,30.50
2018-07-22T13:44:42.231Z,30.71
2018-07-22T13:47:12.696Z,30.91
2018-07-22T13:49:43.186Z,31.08
2018-07-22T13:52:13.566Z,31.14
2018-07-22T13:54:43.744Z,30.89
2018-07-22T13:57:13.980Z,30.60
2018-07-22T13:59:44.300Z,30.37
2018-07-22T14:02:14.386Z,30.15
2018-07-22T14:04:44.615Z,30.01
2018-07-22T14:07:15.059Z,29.90
2018-07-22T14:09:45.215Z,29.83
2018-07-22T14:12:15.184Z,29.81
2018-07-22T14:14:45.545Z,29.80
2018-07-22T14:17:16.364Z,29.70
2018-07-22T14:19:47.215Z,29.63
2018-07-22T14:22:18.319Z,29.73
2018-07-22T14:24:48.550Z,29.80
2018-07-22T14:27:18.944Z,29.79
2018-07-22T14:29:49.613Z,29.65
2018-07-22T14:32:19.896Z,29.51
2018-07-22T14:34:49.862Z,29.38
2018-07-22T14:37:20.019Z,29.16
2018-07-22T14:39:50.167Z,28.97
2018-07-22T14:42:20.090Z,28.52
2018-07-22T14:44:50.401Z,28.14
2018-07-22T14:47:20.769Z,27.99
2018-07-22T14:49:51.009Z,27.91
2018-07-22T14:52:21.136Z,27.83
2018-07-22T14:54:51.564Z,27.59
2018-07-22T14:57:21.680Z,27.59
2018-07-22T14:59:52.219Z,27.53
2018-07-22T15:02:22.287Z,27.52
2018-07-22T15:04:52.348Z,27.68
2018-07-22T15:07:22.454Z,27.60
2018-07-22T15:09:53.060Z,27.58
2018-07-22T15:12:23.066Z,27.69
2018-07-22T15:14:53.448Z,27.74
2018-07-22T15:17:23.778Z,27.85
2018-07-22T15:19:53.615Z,27.95
2018-07-22T15:22:23.997Z,28.07
2018-07-22T15:24:54.142Z,28.13
2018-07-22T15:27:24.827Z,27.97
2018-07-22T15:29:55.276Z,28.05
2018-07-22T15:32:25.468Z,28.12
2018-07-22T15:34:55.490Z,28.13
2018-07-22T15:37:26.009Z,28.14
2018-07-22T15:39:56.364Z,28.03
2018-07-22T15:42:26.603Z,28.10
2018-07-22T15:44:57.518Z,27.97
2018-07-22T15:47:27.924Z,28.09
2018-07-22T15:49:58.197Z,28.15
2018-07-22T15:52:28.605Z,28.12
2018-07-22T15:54:59.059Z,28.09
2018-07-22T15:57:29.098Z,27.99
2018-07-22T15:59:59.374Z,27.84
2018-07-22T16:02:29.509Z,27.77
2018-07-22T16:04:59.731Z,27.69
2018-07-22T16:07:31.336Z,27.70
2018-07-22T16:10:01.756Z,27.73
2018-07-22T16:12:33.596Z,27.74
2018-07-22T16:15:04.284Z,27.73
2018-07-22T16:17:34.606Z,27.73
2018-07-22T16:20:05.380Z,27.63
2018-07-22T16:22:36.639Z,27.58
2018-07-22T16:25:07.445Z,27.53
2018-07-22T16:27:38.256Z,27.49
2018-07-22T16:30:09.995Z,27.58
2018-07-22T16:32:40.633Z,27.50
2018-07-22T16:35:11.773Z,27.45
2018-07-22T16:37:42.960Z,27.49
2018-07-22T16:40:13.513Z,27.57
2018-07-22T16:42:44.870Z,27.58
2018-07-22T16:45:16.530Z,27.61
2018-07-22T16:47:46.904Z,27.73
2018-07-22T16:50:17.833Z,27.79
2018-07-22T16:52:49.094Z,27.98
2018-07-22T16:55:20.346Z,28.15
2018-07-22T16:57:51.734Z,28.33
2018-07-22T17:00:22.611Z,28.43
2018-07-22T17:02:53.773Z,28.28
2018-07-22T17:05:24.517Z,28.53
2018-07-22T17:07:55.090Z,28.67
2018-07-22T17:10:25.680Z,28.81
2018-07-22T17:12:55.933Z,28.86
2018-07-22T17:15:26.035Z,28.81
2018-07-22T17:17:56.181Z,28.65
2018-07-22T17:20:26.258Z,28.57
2018-07-22T17:22:56.584Z,28.52
2018-07-22T17:25:27.014Z,28.48
2018-07-22T17:27:56.938Z,28.45
2018-07-22T17:30:26.775Z,28.35
2018-07-22T17:32:57.158Z,28.29
2018-07-22T17:35:27.396Z,28.27
2018-07-22T17:37:57.569Z,28.21
2018-07-22T17:40:27.968Z,28.20
2018-07-22T17:42:58.183Z,28.21
2018-07-22T17:45:28.089Z,28.13
2018-07-22T17:47:58.323Z,28.02
2018-07-22T17:50:28.516Z,28.08
2018-07-22T17:52:58.705Z,28.10
2018-07-22T17:55:28.786Z,28.09
2018-07-22T17:57:58.939Z,28.13
2018-07-22T18:00:28.924Z,28.16
2018-07-22T18:03:13.027Z,28.11
2018-07-22T18:05:43.309Z,28.08
2018-07-22T18:08:13.512Z,28.10
2018-07-22T18:10:43.992Z,28.07
2018-07-22T18:13:14.078Z,28.07
2018-07-22T18:15:44.578Z,28.15
2018-07-22T18:18:15.481Z,28.08
2018-07-22T18:20:46.930Z,28.10
2018-07-22T18:23:17.095Z,28.13
2018-07-22T18:25:47.738Z,28.07
2018-07-22T18:28:17.968Z,28.04
2018-07-22T18:30:48.203Z,27.99
2018-07-22T18:33:18.168Z,28.01
2018-07-22T18:35:48.549Z,28.13
2018-07-22T18:38:18.996Z,28.17
2018-07-22T18:40:49.553Z,28.09
2018-07-22T18:43:20.089Z,28.03
2018-07-22T18:45:50.616Z,27.92
2018-07-22T18:48:21.398Z,27.84
2018-07-22T18:50:52.246Z,27.78
2018-07-22T18:53:23.131Z,27.76
2018-07-22T18:55:53.635Z,27.76
2018-07-22T18:58:24.305Z,27.77
2018-07-22T19:00:54.712Z,27.74
2018-07-22T19:03:25.093Z,27.69
2018-07-22T19:05:56.075Z,27.66
2018-07-22T19:08:26.899Z,27.59
2018-07-22T19:10:57.617Z,27.52
2018-07-22T19:13:28.759Z,27.47
2018-07-22T19:15:59.780Z,27.43
2018-07-22T19:18:30.371Z,27.39
2018-07-22T19:21:01.210Z,27.32
2018-07-22T19:23:32.316Z,27.25
2018-07-22T19:26:02.601Z,27.20
2018-07-22T19:28:33.042Z,27.17
2018-07-22T19:31:03.419Z,27.14
2018-07-22T19:33:34.068Z,27.14
2018-07-22T19:36:04.687Z,27.14
2018-07-22T19:38:35.552Z,27.10
2018-07-22T19:41:06.690Z,27.08
2018-07-22T19:43:37.373Z,27.04
2018-07-22T19:46:07.844Z,27.04
2018-07-22T19:48:38.305Z,27.06
2018-07-22T19:51:08.801Z,27.01
2018-07-22T19:53:39.672Z,27.01
2018-07-22T19:56:10.208Z,26.89
2018-07-22T19:58:40.925Z,26.86
2018-07-22T20:01:11.095Z,26.84
2018-07-22T20:03:41.792Z,26.82
2018-07-22T20:06:12.420Z,26.73
2018-07-22T20:08:42.826Z,26.71
2018-07-22T20:11:13.625Z,26.67
2018-07-22T20:13:44.114Z,26.62
2018-07-22T20:16:14.739Z,26.56
2018-07-22T20:18:45.080Z,26.50
2018-07-22T20:21:15.510Z,26.46
2018-07-22T20:23:46.071Z,26.41
2018-07-22T20:26:16.571Z,26.40
2018-07-22T20:28:47.209Z,26.39
2018-07-22T20:31:17.768Z,26.39
2018-07-22T20:33:48.467Z,26.35
2018-07-22T20:36:18.986Z,26.32
2018-07-22T20:38:49.716Z,26.28
2018-07-22T20:41:19.820Z,26.03
2018-07-22T20:43:50.062Z,25.92
2018-07-22T20:46:20.280Z,25.78
2018-07-22T20:48:50.542Z,25.70
2018-07-22T20:51:20.807Z,25.63
2018-07-22T20:53:50.986Z,25.69
2018-07-22T20:56:21.402Z,25.72
2018-07-22T20:58:51.772Z,25.76
2018-07-22T21:01:22.222Z,25.62
2018-07-22T21:03:52.447Z,25.55
2018-07-22T21:06:22.711Z,25.52
2018-07-22T21:08:52.970Z,25.49
2018-07-22T21:11:23.176Z,25.45
2018-07-22T21:13:53.360Z,25.44
2018-07-22T21:16:23.550Z,25.21
2018-07-22T21:18:53.645Z,25.12
2018-07-22T21:21:23.876Z,25.10
2018-07-22T21:23:53.816Z,25.03
2018-07-22T21:26:24.281Z,24.93
2018-07-22T21:28:54.403Z,24.84
2018-07-22T21:31:24.649Z,24.85
2018-07-22T21:33:55.536Z,24.98
2018-07-22T21:36:25.736Z,25.05
2018-07-22T21:38:55.907Z,24.99
2018-07-22T21:41:26.302Z,24.88
2018-07-22T21:43:56.570Z,24.91
2018-07-22T21:46:26.617Z,24.80
2018-07-22T21:48:57.136Z,24.82
2018-07-22T21:51:27.243Z,24.76
2018-07-22T21:53:57.521Z,24.79
2018-07-22T21:56:27.537Z,24.87
2018-07-22T21:58:57.767Z,24.71
2018-07-22T22:01:28.025Z,24.70
2018-07-22T22:03:58.556Z,24.76
2018-07-22T22:06:28.450Z,24.66
2018-07-22T22:08:58.546Z,24.67
2018-07-22T22:11:28.911Z,24.75
2018-07-22T22:13:58.966Z,24.77
2018-07-22T22:16:29.068Z,24.79
2018-07-22T22:18:59.325Z,24.88
2018-07-22T22:21:29.435Z,24.89
2018-07-22T22:23:59.685Z,24.92
2018-07-22T22:26:29.994Z,24.91
2018-07-22T22:29:00.125Z,24.97
2018-07-22T22:31:30.381Z,24.99
2018-07-22T22:34:00.438Z,25.00
2018-07-22T22:36:30.880Z,24.97
2018-07-22T22:39:01.012Z,24.96
2018-07-22T22:41:31.167Z,24.96
2018-07-22T22:44:01.461Z,24.97
2018-07-22T22:46:31.530Z,24.91
2018-07-22T22:49:01.717Z,24.91
2018-07-22T22:51:31.942Z,24.87
2018-07-22T22:54:01.745Z,24.90
2018-07-22T22:56:31.866Z,24.90
2018-07-22T22:59:20.787Z,24.94
2018-07-22T23:01:51.103Z,24.87
2018-07-22T23:04:21.467Z,24.86
2018-07-22T23:06:51.657Z,24.81
2018-07-22T23:09:21.959Z,24.84
2018-07-22T23:11:51.948Z,24.88
2018-07-22T23:14:22.154Z,24.92
2018-07-22T23:16:52.331Z,24.89
2018-07-22T23:19:22.560Z,24.86
2018-07-22T23:21:52.705Z,24.86
2018-07-22T23:24:22.887Z,24.82
2018-07-22T23:26:52.869Z,24.84
2018-07-22T23:29:23.332Z,24.86
2018-07-22T23:31:53.220Z,24.82
2018-07-22T23:34:23.840Z,24.78
2018-07-22T23:36:53.857Z,24.80
2018-07-22T23:39:24.096Z,24.76
2018-07-22T23:41:54.326Z,24.75
2018-07-22T23:44:24.432Z,24.79
2018-07-22T23:46:54.704Z,24.79
2018-07-22T23:49:24.844Z,24.82
2018-07-22T23:51:55.048Z,24.84
2018-07-22T23:54:25.308Z,24.85
2018-07-22T23:56:55.361Z,24.81
2018-07-22T23:59:25.495Z,24.70
